createdAt,value
2019-05-23T00:00:10.676Z,12.5
2019-05-23T00:01:10.696Z,12.4
2019-05-23T00:02:11.017Z,12.4
2019-05-23T00:03:10.817Z,12.5
2019-05-23T00:04:10.883Z,12.6
2019-05-23T00:05:11.171Z,12.5
2019-05-23T00:06:15.447Z,12.4
2019-05-23T00:07:11.531Z,12.3
2019-05-23T00:08:11.111Z,12.3
2019-05-23T00:09:11.658Z,12.4
2019-05-23T00:10:11.692Z,12.4
2019-05-23T00:11:11.264Z,12.3
2019-05-23T00:12:11.341Z,12.4
2019-05-23T00:13:12.416Z,12.4
2019-05-23T00:14:11.464Z,12.5
2019-05-23T00:15:12.891Z,12.4
2019-05-23T00:16:11.848Z,12.4
2019-05-23T00:17:11.643Z,12.3
2019-05-23T00:18:11.980Z,12.3
2019-05-23T00:19:11.746Z,12.3
2019-05-23T00:20:12.074Z,12.1
2019-05-23T00:21:12.168Z,12.2
2019-05-23T00:22:11.926Z,12.3
2019-05-23T00:23:17.085Z,12.3
2019-05-23T00:24:12.085Z,12.2
2019-05-23T00:25:12.150Z,12.3
2019-05-23T00:26:13.218Z,12.4
2019-05-23T00:27:13.293Z,12.4
2019-05-23T00:28:15.664Z,12.3
2019-05-23T00:28:42.784Z,12.3
2019-05-23T00:29:14.778Z,12.3
2019-05-23T00:30:17.657Z,12.2
2019-05-23T00:31:12.417Z,12.1
2019-05-23T00:32:28.003Z,12
2019-05-23T00:33:12.545Z,12.1
2019-05-23T00:34:12.616Z,12.1
2019-05-23T00:35:12.859Z,12
2019-05-23T00:36:13.028Z,12
2019-05-23T00:37:14.927Z,12
2019-05-23T00:38:12.914Z,12.1
2019-05-23T00:39:30.378Z,12.1
2019-05-23T00:40:20.172Z,12
2019-05-23T00:41:13.081Z,11.9
2019-05-23T00:42:13.065Z,11.9
2019-05-23T00:43:13.296Z,12
2019-05-23T00:44:13.446Z,12
2019-05-23T00:45:13.251Z,12.1
2019-05-23T00:46:14.370Z,12
2019-05-23T00:47:13.333Z,12
2019-05-23T00:48:14.413Z,12
2019-05-23T00:49:16.634Z,11.8
2019-05-23T00:50:13.548Z,11.7
2019-05-23T00:51:30.072Z,11.8
2019-05-23T00:52:13.891Z,11.9
2019-05-23T00:53:14.248Z,12
2019-05-23T00:54:13.790Z,11.9
2019-05-23T00:55:13.765Z,11.9
2019-05-23T00:56:13.872Z,11.9
2019-05-23T00:57:14.008Z,11.9
2019-05-23T00:58:13.974Z,11.9
2019-05-23T00:59:26.300Z,11.9
2019-05-23T01:00:14.100Z,11.8
2019-05-23T01:01:14.182Z,11.9
2019-05-23T01:03:14.870Z,11.7
2019-05-23T01:04:20.051Z,11.6
2019-05-23T01:05:27.437Z,11.5
2019-05-23T01:07:14.567Z,11.7
2019-05-23T01:08:14.611Z,11.7
2019-05-23T01:09:46.682Z,11.8
2019-05-23T01:10:22.764Z,11.7
2019-05-23T01:12:16.139Z,11.8
2019-05-23T01:13:14.890Z,11.8
2019-05-23T01:14:15.235Z,11.8
2019-05-23T01:15:15.060Z,11.9
2019-05-23T01:16:15.081Z,11.8
2019-05-23T01:17:15.398Z,11.7
2019-05-23T01:18:16.211Z,11.7
2019-05-23T01:19:15.263Z,11.7
2019-05-23T01:20:15.399Z,11.6
2019-05-23T01:21:15.594Z,11.6
2019-05-23T01:23:04.281Z,11.6
2019-05-23T01:23:30.828Z,11.7
2019-05-23T01:24:30.301Z,11.8
2019-05-23T01:25:30.708Z,11.8
2019-05-23T01:26:30.824Z,11.8
2019-05-23T01:27:31.455Z,11.8
2019-05-23T01:28:30.523Z,11.8
2019-05-23T01:35:31.228Z,11.5
2019-05-23T01:36:31.017Z,11.4
2019-05-23T01:37:31.079Z,11.5
2019-05-23T01:38:31.131Z,11.5
2019-05-23T01:39:31.719Z,11.5
2019-05-23T01:40:31.234Z,11.4
2019-05-23T01:41:31.312Z,11.5
2019-05-23T01:42:31.399Z,11.4
2019-05-23T01:43:31.412Z,11.5
2019-05-23T01:44:31.725Z,11.6
2019-05-23T01:45:31.834Z,11.5
2019-05-23T01:46:32.232Z,11.5
2019-05-23T01:47:31.687Z,11.5
2019-05-23T01:48:31.997Z,11.6
2019-05-23T01:49:31.725Z,11.5
2019-05-23T01:50:31.774Z,11.5
2019-05-23T01:51:32.382Z,11.4
2019-05-23T01:52:31.927Z,11.4
2019-05-23T01:53:31.982Z,11.4
2019-05-23T01:54:32.255Z,11.5
2019-05-23T01:55:32.058Z,11.6
2019-05-23T01:56:32.260Z,11.6
2019-05-23T01:57:32.206Z,11.6
2019-05-23T01:58:32.278Z,11.5
2019-05-23T01:59:32.546Z,11.5
2019-05-23T02:00:32.904Z,11.4
2019-05-23T02:01:33.441Z,11.3
2019-05-23T02:02:36.010Z,11.3
2019-05-23T02:03:32.749Z,11.3
2019-05-23T02:04:32.630Z,11.4
2019-05-23T02:05:32.656Z,11.3
2019-05-23T02:06:37.254Z,11.3
2019-05-23T02:07:32.766Z,11.3
2019-05-23T02:08:38.193Z,11.4
2019-05-23T02:09:32.899Z,11.4
2019-05-23T02:10:34.014Z,11.5
2019-05-23T02:11:33.037Z,11.5
2019-05-23T02:12:43.144Z,11.5
2019-05-23T02:13:33.149Z,11.4
2019-05-23T02:14:33.145Z,11.4
2019-05-23T02:15:33.264Z,11.4
2019-05-23T02:16:33.297Z,11.5
2019-05-23T02:17:33.337Z,11.5
2019-05-23T02:18:33.634Z,11.3
2019-05-23T02:19:33.492Z,11.4
2019-05-23T02:20:33.596Z,11.3
2019-05-23T02:21:34.047Z,11.3
2019-05-23T02:22:34.726Z,11.3
2019-05-23T02:23:33.958Z,11.3
2019-05-23T02:24:33.755Z,11.2
2019-05-23T02:25:33.851Z,11.2
2019-05-23T02:26:33.887Z,11.3
2019-05-23T02:27:33.984Z,11.3
2019-05-23T02:28:34.001Z,11.3
2019-05-23T02:29:34.314Z,11.3
2019-05-23T02:30:35.910Z,11.1
2019-05-23T02:31:34.251Z,10.9
2019-05-23T02:32:34.252Z,10.9
2019-05-23T02:33:35.440Z,10.9
2019-05-23T02:34:34.380Z,10.9
2019-05-23T02:35:34.447Z,10.8
2019-05-23T02:36:34.459Z,10.9
2019-05-23T02:37:34.496Z,10.8
2019-05-23T02:38:35.084Z,10.8
2019-05-23T02:39:35.842Z,10.8
2019-05-23T02:40:34.731Z,10.8
2019-05-23T02:41:35.017Z,10.8
2019-05-23T02:42:35.263Z,10.8
2019-05-23T02:43:34.863Z,10.8
2019-05-23T02:44:35.166Z,10.8
2019-05-23T02:45:35.003Z,10.7
2019-05-23T02:46:35.283Z,10.7
2019-05-23T02:47:35.023Z,10.7
2019-05-23T02:48:35.110Z,10.7
2019-05-23T02:49:35.396Z,10.7
2019-05-23T02:50:36.170Z,10.7
2019-05-23T02:51:40.459Z,10.6
2019-05-23T02:52:40.317Z,10.6
2019-05-23T02:53:36.934Z,10.6
2019-05-23T02:54:37.350Z,10.6
2019-05-23T02:55:37.358Z,10.4
2019-05-23T02:56:35.779Z,10.4
2019-05-23T02:57:35.638Z,10.4
2019-05-23T02:58:37.731Z,10.5
2019-05-23T02:59:35.843Z,10.6
2019-05-23T03:00:52.330Z,10.7
2019-05-23T03:01:36.682Z,10.7
2019-05-23T03:02:36.149Z,10.7
2019-05-23T03:03:37.047Z,10.6
2019-05-23T03:04:36.392Z,10.6
2019-05-23T03:05:36.126Z,10.6
2019-05-23T03:06:36.236Z,10.6
2019-05-23T03:07:36.299Z,10.5
2019-05-23T03:08:36.311Z,10.4
2019-05-23T03:09:36.413Z,10.4
2019-05-23T03:10:37.522Z,10.4
2019-05-23T03:11:36.599Z,10.5
2019-05-23T03:12:38.153Z,10.6
2019-05-23T03:13:36.856Z,10.5
2019-05-23T03:14:37.915Z,10.6
2019-05-23T03:15:36.752Z,10.6
2019-05-23T03:16:36.824Z,10.6
2019-05-23T03:17:37.119Z,10.5
2019-05-23T03:18:36.947Z,10.6
2019-05-23T03:19:37.494Z,10.6
2019-05-23T03:20:37.183Z,10.6
2019-05-23T03:21:37.149Z,10.5
2019-05-23T03:22:37.203Z,10.5
2019-05-23T03:23:37.258Z,10.6
2019-05-23T03:24:37.380Z,10.5
2019-05-23T03:25:38.423Z,10.4
2019-05-23T03:26:37.463Z,10.3
2019-05-23T03:27:37.501Z,10.3
2019-05-23T03:28:37.584Z,10.4
2019-05-23T03:29:37.653Z,10.3
2019-05-23T03:30:37.655Z,10.3
2019-05-23T03:31:37.977Z,10.3
2019-05-23T03:42:42.457Z,10.1
2019-05-23T03:43:42.882Z,10.2
2019-05-23T03:44:45.746Z,10.3
2019-05-23T03:45:43.108Z,10.3
2019-05-23T03:46:42.805Z,10.2
2019-05-23T03:47:43.987Z,10.1
2019-05-23T03:48:44.199Z,9.9
2019-05-23T03:49:42.907Z,9.9
2019-05-23T03:50:42.873Z,10.1
2019-05-23T03:51:46.114Z,10
2019-05-23T03:52:44.638Z,9.9
2019-05-23T03:53:47.577Z,10
2019-05-23T03:54:43.140Z,10.1
2019-05-23T03:55:44.280Z,10.1
2019-05-23T03:56:43.252Z,10
2019-05-23T03:57:43.398Z,10
2019-05-23T03:58:43.445Z,10.1
2019-05-23T03:59:43.986Z,10.1
2019-05-23T04:00:43.497Z,10.1
2019-05-23T04:01:48.150Z,10
2019-05-23T04:02:44.959Z,10
2019-05-23T04:03:44.916Z,10
2019-05-23T04:04:44.150Z,10
2019-05-23T04:05:43.722Z,9.9
2019-05-23T04:06:54.966Z,9.8
2019-05-23T04:07:44.021Z,9.9
2019-05-23T04:08:44.169Z,9.8
2019-05-23T04:09:44.008Z,9.6
2019-05-23T04:10:44.031Z,9.6
2019-05-23T04:11:44.029Z,9.6
2019-05-23T04:12:44.115Z,9.6
2019-05-23T04:13:44.368Z,9.8
2019-05-23T04:14:44.185Z,9.7
2019-05-23T04:15:44.282Z,9.6
2019-05-23T04:16:44.360Z,9.6
2019-05-23T04:17:44.363Z,9.8
2019-05-23T04:18:44.396Z,9.9
2019-05-23T04:19:44.444Z,9.9
2019-05-23T04:20:44.509Z,9.9
2019-05-23T04:21:44.606Z,9.9
2019-05-23T04:22:44.615Z,9.8
2019-05-23T04:23:44.743Z,9.9
2019-05-23T04:24:44.843Z,10
2019-05-23T04:25:44.807Z,9.9
2019-05-23T04:26:45.155Z,9.8
2019-05-23T04:27:44.950Z,9.6
2019-05-23T04:28:45.006Z,9.5
2019-05-23T04:29:45.065Z,9.6
2019-05-23T04:30:45.106Z,9.7
2019-05-23T04:31:45.212Z,9.7
2019-05-23T04:32:45.228Z,9.7
2019-05-23T04:33:45.564Z,9.7
2019-05-23T04:34:45.356Z,9.6
2019-05-23T04:35:45.808Z,9.8
2019-05-23T04:36:45.730Z,9.8
2019-05-23T04:37:45.547Z,9.8
2019-05-23T04:38:45.540Z,9.8
2019-05-23T04:39:45.778Z,9.8
2019-05-23T04:40:45.839Z,9.9
2019-05-23T04:41:45.718Z,10
2019-05-23T04:42:45.772Z,10
2019-05-23T04:43:45.862Z,10
2019-05-23T04:44:45.881Z,9.9
2019-05-23T04:45:45.911Z,9.9
2019-05-23T04:46:45.988Z,9.9
2019-05-23T04:47:46.249Z,10
2019-05-23T04:48:46.071Z,10
2019-05-23T04:49:46.164Z,9.8
2019-05-23T04:50:46.178Z,9.9
2019-05-23T04:51:46.248Z,9.9
2019-05-23T04:52:46.283Z,9.9
2019-05-23T04:53:46.343Z,10
2019-05-23T04:54:46.478Z,10
2019-05-23T04:55:46.447Z,10
2019-05-23T04:56:46.499Z,10
2019-05-23T04:57:46.587Z,10
2019-05-23T04:58:48.216Z,9.9
2019-05-23T04:59:46.806Z,10
2019-05-23T05:00:47.762Z,10
2019-05-23T05:01:46.783Z,10
2019-05-23T05:02:47.118Z,10.1
2019-05-23T05:03:46.866Z,10.1
2019-05-23T05:04:46.959Z,10.1
2019-05-23T05:06:02.063Z,10.1
2019-05-23T05:06:47.095Z,10.2
2019-05-23T05:07:47.145Z,10.2
2019-05-23T05:08:47.295Z,10.1
2019-05-23T05:09:47.319Z,10.2
2019-05-23T05:10:47.325Z,10.1
2019-05-23T05:11:47.394Z,10.2
2019-05-23T05:12:47.734Z,10.2
2019-05-23T05:13:47.526Z,10.3
2019-05-23T05:14:47.645Z,10.3
2019-05-23T05:15:47.646Z,10.3
2019-05-23T05:16:47.735Z,10.3
2019-05-23T05:17:47.826Z,10.2
2019-05-23T05:18:47.798Z,10.3
2019-05-23T05:19:47.915Z,10.4
2019-05-23T05:20:47.919Z,10.3
2019-05-23T05:21:48.010Z,10.4
2019-05-23T05:22:48.110Z,10.5
2019-05-23T05:23:48.145Z,10.5
2019-05-23T05:24:48.185Z,10.6
2019-05-23T05:25:48.295Z,10.5
2019-05-23T05:26:48.365Z,10.4
2019-05-23T05:27:48.347Z,10.4
2019-05-23T05:28:48.395Z,10.4
2019-05-23T05:29:48.465Z,10.5
2019-05-23T05:30:53.746Z,10.7
2019-05-23T05:31:48.575Z,10.7
2019-05-23T05:32:48.785Z,10.7
2019-05-23T05:33:48.852Z,10.8
2019-05-23T05:34:48.738Z,10.8
2019-05-23T05:35:48.776Z,10.9
2019-05-23T05:36:51.199Z,10.8
2019-05-23T05:37:57.326Z,10.8
2019-05-23T05:38:49.472Z,10.8
2019-05-23T05:39:48.989Z,10.8
2019-05-23T05:40:49.098Z,10.9
2019-05-23T05:41:49.171Z,10.9
2019-05-23T05:42:55.757Z,11
2019-05-23T05:43:53.872Z,11
2019-05-23T05:44:53.922Z,11
2019-05-23T05:46:09.769Z,11.1
2019-05-23T05:47:17.587Z,11
2019-05-23T05:47:54.569Z,11.1
2019-05-23T05:48:49.806Z,11.1
2019-05-23T05:48:54.149Z,11.1
2019-05-23T05:49:59.209Z,11.1
2019-05-23T05:50:54.822Z,11
2019-05-23T05:51:55.372Z,11
2019-05-23T05:52:55.711Z,11
2019-05-23T05:53:54.443Z,11.1
2019-05-23T05:54:55.609Z,11.1
2019-05-23T05:55:54.783Z,11.1
2019-05-23T05:56:54.836Z,11.2
2019-05-23T05:57:54.656Z,11.3
2019-05-23T05:58:54.689Z,11.4
2019-05-23T05:59:54.743Z,11.4
2019-05-23T06:00:54.882Z,11.4
2019-05-23T06:01:54.824Z,11.5
2019-05-23T06:03:04.030Z,11.7
2019-05-23T06:03:55.015Z,11.7
2019-05-23T06:04:55.029Z,11.8
2019-05-23T06:05:55.141Z,11.8
2019-05-23T06:06:55.149Z,11.8
2019-05-23T06:07:55.219Z,11.8
2019-05-23T06:08:55.329Z,11.8
2019-05-23T06:09:55.416Z,11.7
2019-05-23T06:10:55.376Z,11.8
2019-05-23T06:11:55.477Z,11.8
2019-05-23T06:12:56.195Z,11.9
2019-05-23T06:13:55.726Z,11.8
2019-05-23T06:14:55.653Z,11.8
2019-05-23T06:15:55.694Z,11.8
2019-05-23T06:16:55.797Z,11.9
2019-05-23T06:17:55.766Z,11.9
2019-05-23T06:18:55.871Z,11.9
2019-05-23T06:19:55.899Z,12.1
2019-05-23T06:20:55.947Z,12.1
2019-05-23T06:21:56.006Z,12.1
2019-05-23T06:22:56.141Z,12.1
2019-05-23T06:23:56.169Z,12.2
2019-05-23T06:24:57.805Z,12.2
2019-05-23T06:25:56.223Z,12.2
2019-05-23T06:26:56.253Z,12.1
2019-05-23T06:27:56.324Z,12.3
2019-05-23T06:28:56.438Z,12.3
2019-05-23T06:29:56.466Z,12.3
2019-05-23T06:30:56.529Z,12.4
2019-05-23T06:31:56.581Z,12.4
2019-05-23T06:32:57.026Z,12.4
2019-05-23T06:33:56.896Z,12.5
2019-05-23T06:34:56.728Z,12.6
2019-05-23T06:35:56.739Z,12.6
2019-05-23T06:36:56.831Z,12.7
2019-05-23T06:37:56.870Z,12.8
2019-05-23T06:39:02.358Z,12.9
2019-05-23T06:39:56.985Z,13
2019-05-23T06:40:57.067Z,12.9
2019-05-23T06:41:57.100Z,12.9
2019-05-23T06:42:57.264Z,13
2019-05-23T06:43:57.440Z,13
2019-05-23T06:45:09.186Z,13.1
2019-05-23T06:45:57.450Z,13.2
2019-05-23T06:46:57.461Z,13.3
2019-05-23T06:47:58.020Z,13.4
2019-05-23T06:48:57.650Z,13.5
2019-05-23T06:49:58.789Z,13.4
2019-05-23T06:50:57.844Z,13.5
2019-05-23T06:51:57.643Z,13.6
2019-05-23T06:52:57.836Z,13.6
2019-05-23T06:53:57.744Z,13.6
2019-05-23T06:54:59.796Z,13.7
2019-05-23T06:55:57.861Z,13.6
2019-05-23T06:56:57.893Z,13.7
2019-05-23T06:57:57.980Z,13.7
2019-05-23T06:58:58.982Z,13.7
2019-05-23T07:00:00.107Z,13.6
2019-05-23T07:00:58.674Z,13.6
2019-05-23T07:01:58.193Z,13.7
2019-05-23T07:02:59.380Z,13.8
2019-05-23T07:03:58.681Z,13.8
2019-05-23T07:04:58.865Z,13.9
2019-05-23T07:06:00.004Z,13.9
2019-05-23T07:06:58.438Z,13.8
2019-05-23T07:07:59.172Z,13.9
2019-05-23T07:08:59.199Z,13.9
2019-05-23T07:09:58.632Z,14
2019-05-23T07:11:00.156Z,14
2019-05-23T07:11:59.224Z,14.1
2019-05-23T07:12:59.466Z,14.3
2019-05-23T07:13:59.686Z,22.3
2019-05-23T07:14:59.699Z,14.4
2019-05-23T07:15:59.042Z,14.3
2019-05-23T07:16:59.108Z,14.3
2019-05-23T07:17:59.119Z,14.3
2019-05-23T07:18:59.363Z,14.3
2019-05-23T07:20:00.670Z,14.2
2019-05-23T07:20:59.767Z,14.2
2019-05-23T07:22:00.052Z,14.3
2019-05-23T07:23:00.156Z,14.4
2019-05-23T07:23:59.543Z,14.4
2019-05-23T07:25:09.008Z,14.3
2019-05-23T07:26:00.497Z,14.5
2019-05-23T07:27:00.746Z,14.7
2019-05-23T07:28:00.755Z,14.8
2019-05-23T07:28:59.977Z,14.8
2019-05-23T07:30:00.033Z,14.9
2019-05-23T07:31:00.136Z,15
2019-05-23T07:32:01.430Z,15
2019-05-23T07:33:00.389Z,15
2019-05-23T07:34:02.090Z,15
2019-05-23T07:35:00.660Z,15
2019-05-23T07:36:00.511Z,15
2019-05-23T07:37:01.059Z,15.1
2019-05-23T07:38:01.033Z,15.2
2019-05-23T07:39:00.578Z,15.3
2019-05-23T07:40:00.568Z,15.3
2019-05-23T07:41:00.669Z,15.3
2019-05-23T07:42:00.746Z,15.4
2019-05-23T07:43:00.777Z,15.4
2019-05-23T07:44:00.731Z,15.4
2019-05-23T07:45:04.135Z,15.6
2019-05-23T07:46:00.833Z,15.7
2019-05-23T07:47:01.700Z,15.8
2019-05-23T07:48:02.828Z,15.7
2019-05-23T07:51:01.169Z,15.9
2019-05-23T07:52:01.167Z,16
2019-05-23T07:53:01.331Z,16.1
2019-05-23T07:54:01.298Z,16.1
2019-05-23T07:55:01.358Z,16.2
2019-05-23T07:56:01.826Z,16.2
2019-05-23T07:57:01.424Z,16.1
2019-05-23T07:58:01.563Z,16.2
2019-05-23T07:59:01.563Z,16.2
2019-05-23T08:00:01.954Z,16.2
2019-05-23T08:01:01.984Z,16.4
2019-05-23T08:02:01.797Z,16.3
2019-05-23T08:03:01.896Z,16.4
2019-05-23T08:04:19.573Z,16.5
2019-05-23T08:05:01.964Z,16.6
2019-05-23T08:06:02.015Z,16.7
2019-05-23T08:07:02.095Z,16.7
2019-05-23T08:08:02.246Z,16.6
2019-05-23T08:09:02.276Z,16.8
2019-05-23T08:10:02.247Z,17.1
2019-05-23T08:11:02.322Z,17.2
2019-05-23T08:12:02.334Z,17.1
2019-05-23T08:13:02.734Z,17
2019-05-23T08:14:02.439Z,16.9
2019-05-23T08:15:10.922Z,16.9
2019-05-23T08:16:02.568Z,17
2019-05-23T08:17:02.621Z,17
2019-05-23T08:18:02.690Z,17.2
2019-05-23T08:19:02.744Z,17.1
2019-05-23T08:20:02.809Z,16.8
2019-05-23T08:21:07.932Z,16.7
2019-05-23T08:22:03.945Z,16.6
2019-05-23T08:23:03.434Z,16.7
2019-05-23T08:24:03.066Z,17
2019-05-23T08:25:03.663Z,17
2019-05-23T08:26:03.262Z,17.2
2019-05-23T08:27:11.989Z,17.2
2019-05-23T08:28:03.281Z,17.2
2019-05-23T08:29:24.500Z,17.4
2019-05-23T08:30:03.642Z,17.4
2019-05-23T08:31:03.501Z,17.4
2019-05-23T08:32:03.721Z,17.5
2019-05-23T08:33:03.750Z,17.4
2019-05-23T08:34:03.601Z,17.5
2019-05-23T08:35:03.876Z,17.5
2019-05-23T08:36:03.699Z,17.2
2019-05-23T08:37:03.784Z,17.2
2019-05-23T08:38:03.819Z,17.8
2019-05-23T08:39:03.916Z,17.8
2019-05-23T08:40:03.936Z,17.8
2019-05-23T08:41:04.081Z,17.8
2019-05-23T08:42:04.079Z,17.9
2019-05-23T08:43:04.189Z,17.9
2019-05-23T08:44:04.548Z,17.7
2019-05-23T08:45:20.218Z,17.6
2019-05-23T08:46:04.333Z,17.7
2019-05-23T08:47:05.619Z,17.8
2019-05-23T08:48:04.513Z,17.9
2019-05-23T08:49:04.692Z,17.8
2019-05-23T08:50:10.638Z,17.9
2019-05-23T08:51:04.806Z,18.1
2019-05-23T08:52:04.913Z,18.1
2019-05-23T08:53:05.622Z,18.2
2019-05-23T08:54:04.947Z,18.2
2019-05-23T08:55:05.049Z,18.4
2019-05-23T08:56:16.027Z,18.1
2019-05-23T08:57:05.073Z,18
2019-05-23T08:58:08.851Z,17.9
2019-05-23T08:59:14.716Z,17.9
2019-05-23T09:00:05.345Z,18.2
2019-05-23T09:01:05.284Z,18.4
2019-05-23T09:02:05.330Z,18.5
2019-05-23T09:03:06.514Z,18.4
2019-05-23T09:04:05.435Z,18.3
2019-05-23T09:05:06.553Z,18.5
2019-05-23T09:06:05.587Z,18.6
2019-05-23T09:07:06.085Z,18.6
2019-05-23T09:08:06.646Z,18.7
2019-05-23T09:09:28.877Z,18.9
2019-05-23T09:10:05.784Z,19
2019-05-23T09:11:05.914Z,19
2019-05-23T09:12:05.930Z,18.8
2019-05-23T09:13:05.967Z,18.7
2019-05-23T09:14:06.274Z,18.5
2019-05-23T09:15:22.460Z,18.4
2019-05-23T09:16:06.122Z,18.4
2019-05-23T09:17:06.212Z,18.4
2019-05-23T09:18:06.223Z,18.7
2019-05-23T09:19:06.333Z,19
2019-05-23T09:20:06.355Z,19.1
2019-05-23T09:21:06.420Z,19.2
2019-05-23T09:22:06.520Z,19.3
2019-05-23T09:23:06.608Z,19.3
2019-05-23T09:24:06.681Z,19.3
2019-05-23T09:25:06.734Z,19.5
2019-05-23T09:26:06.701Z,19.6
2019-05-23T09:27:06.736Z,19.9
2019-05-23T09:28:06.821Z,19.8
2019-05-23T09:29:06.901Z,19.8
2019-05-23T09:30:06.928Z,19.9
2019-05-23T09:31:07.226Z,20.1
2019-05-23T09:32:07.050Z,20
2019-05-23T09:33:07.093Z,20
2019-05-23T09:34:07.187Z,19.8
2019-05-23T09:35:19.968Z,19.9
2019-05-23T09:36:07.273Z,19.7
2019-05-23T09:37:07.328Z,19.9
2019-05-23T09:38:11.441Z,19.8
2019-05-23T09:39:07.460Z,19.7
2019-05-23T09:40:07.510Z,19.6
2019-05-23T09:41:07.590Z,19.5
2019-05-23T09:42:07.570Z,19.5
2019-05-23T09:43:07.670Z,19.6
2019-05-23T09:44:07.682Z,19.8
2019-05-23T09:45:07.780Z,19.8
2019-05-23T09:46:12.962Z,19.5
2019-05-23T09:47:08.093Z,19.4
2019-05-23T09:48:11.264Z,19.5
2019-05-23T09:50:08.014Z,19.5
2019-05-23T09:51:08.031Z,19.6
2019-05-23T09:52:08.437Z,19.9
2019-05-23T09:53:08.206Z,20.1
2019-05-23T09:54:08.294Z,20.5
2019-05-23T09:55:08.744Z,20.4
2019-05-23T09:56:08.350Z,20.2
2019-05-23T09:57:08.459Z,20.2
2019-05-23T09:58:08.835Z,20.2
2019-05-23T09:59:08.675Z,20.5
2019-05-23T10:00:08.896Z,20.4
2019-05-23T10:01:11.687Z,20.5
2019-05-23T10:02:08.946Z,20.5
2019-05-23T10:03:08.989Z,20.3
2019-05-23T10:04:08.804Z,20.3
2019-05-23T10:05:08.820Z,20.3
2019-05-23T10:06:09.940Z,20.4
2019-05-23T10:07:09.162Z,20.5
2019-05-23T10:08:09.154Z,20.3
2019-05-23T10:09:14.350Z,20.3
2019-05-23T10:10:09.067Z,20.2
2019-05-23T10:11:09.167Z,20.3
2019-05-23T10:12:12.326Z,20.6
2019-05-23T10:13:09.531Z,20.4
2019-05-23T10:14:09.308Z,20.6
2019-05-23T10:15:09.362Z,20.8
2019-05-23T10:16:09.715Z,20.6
2019-05-23T10:17:09.716Z,20.3
2019-05-23T10:18:10.092Z,20.2
2019-05-23T10:19:12.962Z,20.3
2019-05-23T10:20:09.714Z,20.5
2019-05-23T10:21:09.678Z,20.2
2019-05-23T10:22:09.733Z,20.1
2019-05-23T10:23:09.885Z,20.1
2019-05-23T10:24:09.860Z,19.9
2019-05-23T10:25:09.947Z,20.2
2019-05-23T10:26:10.010Z,20.4
2019-05-23T10:27:10.621Z,20.5
2019-05-23T10:28:10.149Z,20.2
2019-05-23T10:29:10.206Z,20.4
2019-05-23T10:30:10.300Z,20.7
2019-05-23T10:31:10.290Z,20.6
2019-05-23T10:32:10.376Z,20.7
2019-05-23T10:33:12.456Z,20.7
2019-05-23T10:34:10.515Z,20.8
2019-05-23T10:35:10.596Z,21
2019-05-23T10:36:10.708Z,20.9
2019-05-23T10:37:10.624Z,20.9
2019-05-23T10:38:10.696Z,21
2019-05-23T10:39:10.784Z,21
2019-05-23T10:40:10.871Z,21.1
2019-05-23T10:41:11.107Z,21
2019-05-23T10:42:10.934Z,20.9
2019-05-23T10:43:10.965Z,20.9
2019-05-23T10:44:11.028Z,21.1
2019-05-23T10:45:11.134Z,21
2019-05-23T10:46:11.166Z,20.9
2019-05-23T10:47:11.338Z,21
2019-05-23T10:48:11.263Z,20.6
2019-05-23T10:49:11.345Z,20.5
2019-05-23T10:50:11.394Z,20.6
2019-05-23T10:51:11.430Z,20.8
2019-05-23T10:52:11.485Z,20.7
2019-05-23T10:53:11.557Z,20.6
2019-05-23T10:54:11.595Z,20.8
2019-05-23T10:55:11.684Z,20.8
2019-05-23T10:56:11.958Z,20.8
2019-05-23T10:57:11.780Z,20.8
2019-05-23T10:58:11.836Z,21.1
2019-05-23T10:59:11.863Z,21.1
2019-05-23T11:00:11.970Z,21.3
2019-05-23T11:01:12.964Z,21.5
2019-05-23T11:02:12.032Z,21.5
2019-05-23T11:03:12.057Z,21.8
2019-05-23T11:04:12.095Z,21.6
2019-05-23T11:05:13.991Z,21.4
2019-05-23T11:06:16.751Z,21.4
2019-05-23T11:07:12.332Z,21.1
2019-05-23T11:08:12.357Z,21.3
2019-05-23T11:09:12.480Z,21.6
2019-05-23T11:10:12.527Z,21.9
2019-05-23T11:11:14.382Z,21.8
2019-05-23T11:12:12.596Z,21.4
2019-05-23T11:13:12.635Z,21.2
2019-05-23T11:14:12.727Z,21.2
2019-05-23T11:15:12.812Z,21.2
2019-05-23T11:16:12.826Z,21
2019-05-23T11:17:12.900Z,21.3
2019-05-23T11:18:12.943Z,21.1
2019-05-23T11:19:12.964Z,20.9
2019-05-23T11:20:13.074Z,20.7
2019-05-23T11:21:13.075Z,20.8
2019-05-23T11:22:13.135Z,21.2
2019-05-23T11:23:13.445Z,21.2
2019-05-23T11:24:13.349Z,21.5
2019-05-23T11:25:13.351Z,21.3
2019-05-23T11:26:13.366Z,21.2
2019-05-23T11:27:13.388Z,20.9
2019-05-23T11:28:13.527Z,20.8
2019-05-23T11:29:13.527Z,21.2
2019-05-23T11:30:13.627Z,21.2
2019-05-23T11:31:13.635Z,21.2
2019-05-23T11:32:13.706Z,21.4
2019-05-23T11:33:13.780Z,21.4
2019-05-23T11:34:13.857Z,21.4
2019-05-23T11:35:13.876Z,21.5
2019-05-23T11:36:13.959Z,21.8
2019-05-23T11:37:14.052Z,21.8
2019-05-23T11:38:14.128Z,21.9
2019-05-23T11:39:14.127Z,22.2
2019-05-23T11:40:14.252Z,22.2
2019-05-23T11:41:14.477Z,22.1
2019-05-23T11:42:14.482Z,22.1
2019-05-23T11:43:14.631Z,21.8
2019-05-23T11:44:14.693Z,21.6
2019-05-23T11:45:14.469Z,21.5
2019-05-23T11:46:14.622Z,21.4
2019-05-23T11:47:14.573Z,21.4
2019-05-23T11:48:16.084Z,21.2
2019-05-23T11:49:14.716Z,21.2
2019-05-23T11:50:14.738Z,21.2
2019-05-23T11:51:14.792Z,21.2
2019-05-23T11:52:14.842Z,21.3
2019-05-23T11:53:14.975Z,21.4
2019-05-23T11:54:14.964Z,21.4
2019-05-23T11:55:14.986Z,21.3
2019-05-23T11:56:15.069Z,21.4
2019-05-23T11:57:15.124Z,21.5
2019-05-23T11:58:15.221Z,21.4
2019-05-23T11:59:15.303Z,21.5
2019-05-23T12:00:15.314Z,21.6
2019-05-23T12:01:20.768Z,21.8
2019-05-23T12:02:15.399Z,21.8
2019-05-23T12:03:15.494Z,22
2019-05-23T12:04:15.553Z,22.1
2019-05-23T12:05:15.594Z,21.9
2019-05-23T12:06:15.663Z,21.5
2019-05-23T12:07:15.712Z,21.3
2019-05-23T12:08:15.760Z,21.5
2019-05-23T12:09:15.820Z,21.5
2019-05-23T12:10:15.894Z,21.6
2019-05-23T12:11:16.049Z,21.4
2019-05-23T12:12:16.021Z,21.5
2019-05-23T12:13:16.079Z,21.7
2019-05-23T12:14:16.129Z,21.8
2019-05-23T12:15:16.166Z,21.9
2019-05-23T12:16:16.302Z,21.8
2019-05-23T12:17:16.312Z,21.6
2019-05-23T12:18:16.357Z,21.5
2019-05-23T12:19:16.392Z,21.5
2019-05-23T12:20:16.430Z,21.5
2019-05-23T12:21:16.510Z,21.6
2019-05-23T12:22:16.570Z,21.3
2019-05-23T12:23:16.715Z,21.6
2019-05-23T12:24:16.654Z,21.7
2019-05-23T12:25:22.871Z,21.6
2019-05-23T12:26:16.789Z,21.8
2019-05-23T12:27:16.812Z,22.1
2019-05-23T12:28:16.911Z,22.2
2019-05-23T12:29:20.088Z,21.9
2019-05-23T12:30:17.048Z,21.8
2019-05-23T12:31:17.074Z,21.8
2019-05-23T12:32:17.117Z,21.7
2019-05-23T12:33:17.194Z,21.4
2019-05-23T12:34:17.239Z,21.5
2019-05-23T12:35:17.359Z,21.7
2019-05-23T12:36:17.379Z,22
2019-05-23T12:37:19.813Z,22
2019-05-23T12:38:17.461Z,21.7
2019-05-23T12:39:17.475Z,21.5
2019-05-23T12:40:17.507Z,21.6
2019-05-23T12:41:17.672Z,21.4
2019-05-23T12:42:17.743Z,21.3
2019-05-23T12:43:17.775Z,21.1
2019-05-23T12:44:18.234Z,21
2019-05-23T12:45:21.202Z,20.9
2019-05-23T12:46:19.978Z,20.9
2019-05-23T12:47:18.068Z,20.9
2019-05-23T12:48:19.144Z,21.2
2019-05-23T12:49:26.058Z,21.4
2019-05-23T12:50:18.168Z,21.4
2019-05-23T12:51:18.193Z,21.3
2019-05-23T12:52:18.290Z,21.6
2019-05-23T12:53:20.475Z,21.6
2019-05-23T12:54:18.655Z,21.8
2019-05-23T12:55:18.394Z,21.9
2019-05-23T12:56:18.700Z,21.6
2019-05-23T12:57:20.939Z,21.5
2019-05-23T12:58:18.628Z,21.5
2019-05-23T12:59:18.647Z,21.6
2019-05-23T13:00:19.690Z,21.7
2019-05-23T13:01:18.745Z,21.8
2019-05-23T13:02:18.796Z,21.6
2019-05-23T13:03:18.823Z,21.9
2019-05-23T13:04:19.011Z,21.8
2019-05-23T13:05:19.187Z,21.9
2019-05-23T13:06:19.081Z,21.7
2019-05-23T13:07:33.185Z,21.4
2019-05-23T13:08:19.327Z,21.5
2019-05-23T13:09:19.220Z,21.7
2019-05-23T13:10:24.022Z,21.9
2019-05-23T13:11:19.239Z,21.8
2019-05-23T13:12:19.351Z,21.8
2019-05-23T13:13:19.484Z,21.6
2019-05-23T13:14:19.474Z,21.3
2019-05-23T13:15:19.563Z,28.3
2019-05-23T13:16:19.527Z,21.1
2019-05-23T13:17:19.568Z,21
2019-05-23T13:18:19.645Z,21.1
2019-05-23T13:19:19.737Z,21.2
2019-05-23T13:20:19.808Z,21.4
2019-05-23T13:21:19.856Z,21.4
2019-05-23T13:22:19.929Z,21.5
2019-05-23T13:23:21.296Z,28.8
2019-05-23T13:24:20.104Z,21.8
2019-05-23T13:25:20.111Z,21.8
2019-05-23T13:26:20.143Z,21.5
2019-05-23T13:27:20.212Z,21.3
2019-05-23T13:28:20.283Z,21
2019-05-23T13:29:23.956Z,21.4
2019-05-23T13:30:20.364Z,21.6
2019-05-23T13:31:20.473Z,21.7
2019-05-23T13:32:20.824Z,21.8
2019-05-23T13:33:20.565Z,22
2019-05-23T13:34:20.626Z,22
2019-05-23T13:35:20.754Z,22.2
2019-05-23T13:36:20.759Z,22.2
2019-05-23T13:37:20.815Z,21.9
2019-05-23T13:38:20.871Z,21.6
2019-05-23T13:39:21.006Z,21.4
2019-05-23T13:40:21.387Z,21.5
2019-05-23T13:41:22.694Z,21.6
2019-05-23T13:42:21.140Z,21.7
2019-05-23T13:43:21.177Z,21.7
2019-05-23T13:44:32.463Z,21.8
2019-05-23T13:45:21.272Z,21.7
2019-05-23T13:46:21.316Z,21.8